createdAt,value
2022-08-02T00:01:10.522Z,21.41
2022-08-02T00:03:40.878Z,21.40
2022-08-02T00:06:11.062Z,21.33
2022-08-02T00:08:41.249Z,21.21
2022-08-02T00:11:14.217Z,21.20
2022-08-02T00:13:44.425Z,21.17
2022-08-02T00:16:16.905Z,21.29
2022-08-02T00:18:47.822Z,21.21
2022-08-02T00:21:17.967Z,21.27
2022-08-02T00:24:28.031Z,21.25
2022-08-02T00:26:42.420Z,21.19
2022-08-02T00:29:12.886Z,21.20
2022-08-02T00:31:43.411Z,21.03
2022-08-02T00:34:28.741Z,20.99
2022-08-02T00:37:02.307Z,20.96
2022-08-02T00:39:34.733Z,20.94
2022-08-02T00:42:08.260Z,20.96
2022-08-02T00:44:38.668Z,20.89
2022-08-02T00:47:09.373Z,20.81
2022-08-02T00:49:39.713Z,20.80
2022-08-02T00:52:10.693Z,20.82
2022-08-02T00:54:41.022Z,20.87
2022-08-02T00:57:13.821Z,20.88
2022-08-02T00:59:44.264Z,20.71
2022-08-02T01:02:15.069Z,20.65
2022-08-02T01:04:47.982Z,20.56
2022-08-02T01:07:18.732Z,20.47
2022-08-02T01:09:49.028Z,20.40
2022-08-02T01:12:21.971Z,20.33
2022-08-02T01:14:54.566Z,20.23
2022-08-02T01:17:35.356Z,20.19
2022-08-02T01:20:14.577Z,20.26
2022-08-02T01:23:14.268Z,20.00
2022-08-02T01:26:21.159Z,20.02
2022-08-02T01:28:57.943Z,19.94
2022-08-02T01:31:33.907Z,19.83
2022-08-02T01:34:07.378Z,19.77
2022-08-02T01:36:44.615Z,19.84
2022-08-02T01:39:26.648Z,19.83
2022-08-02T01:42:02.628Z,19.73
2022-08-02T01:44:39.203Z,19.50
2022-08-02T01:47:13.745Z,19.42
2022-08-02T01:49:48.061Z,19.45
2022-08-02T01:52:26.391Z,19.47
2022-08-02T01:55:02.637Z,19.47
2022-08-02T01:57:42.032Z,19.44
2022-08-02T02:00:16.585Z,19.41
2022-08-02T02:02:48.205Z,19.42
2022-08-02T02:05:21.597Z,19.44
2022-08-02T02:07:52.946Z,19.39
2022-08-02T02:10:34.072Z,19.26
2022-08-02T02:13:08.727Z,19.25
2022-08-02T02:15:46.544Z,19.15
2022-08-02T02:18:21.375Z,19.20
2022-08-02T02:20:52.065Z,19.40
2022-08-02T02:23:23.767Z,19.43
2022-08-02T02:25:56.945Z,19.42
2022-08-02T02:28:32.091Z,19.68
2022-08-02T02:31:09.706Z,19.70
2022-08-02T02:33:47.562Z,19.87
2022-08-02T02:36:21.089Z,19.73
2022-08-02T02:38:53.698Z,19.69
2022-08-02T02:41:27.178Z,19.60
2022-08-02T02:44:04.186Z,19.66
2022-08-02T02:46:39.238Z,19.63
2022-08-02T02:49:10.121Z,19.51
2022-08-02T02:51:43.602Z,19.48
2022-08-02T02:54:31.070Z,19.48
2022-08-02T02:57:05.823Z,19.55
2022-08-02T02:59:42.967Z,19.49
2022-08-02T03:02:23.336Z,19.39
2022-08-02T03:04:56.249Z,19.33
2022-08-02T03:07:28.345Z,19.33
2022-08-02T03:09:58.756Z,19.23
2022-08-02T03:12:32.253Z,19.27
2022-08-02T03:15:04.669Z,19.21
2022-08-02T03:17:45.152Z,19.09
2022-08-02T03:20:17.617Z,19.05
2022-08-02T03:22:49.927Z,19.02
2022-08-02T03:25:21.713Z,18.95
2022-08-02T03:27:51.864Z,19.01
2022-08-02T03:30:24.962Z,19.02
2022-08-02T03:32:57.917Z,18.91
2022-08-02T03:35:28.143Z,18.93
2022-08-02T03:38:00.573Z,18.94
2022-08-02T03:40:31.342Z,18.94
2022-08-02T03:43:02.228Z,18.92
2022-08-02T03:45:33.854Z,19.05
2022-08-02T03:48:35.010Z,19.01
2022-08-02T03:50:59.709Z,19.04
2022-08-02T03:53:31.245Z,19.02
2022-08-02T03:56:02.024Z,19.08
2022-08-02T03:58:32.207Z,19.10
2022-08-02T04:01:03.626Z,19.22
2022-08-02T04:03:36.610Z,19.23
2022-08-02T04:06:06.783Z,19.23
2022-08-02T04:08:38.745Z,19.24
2022-08-02T04:11:21.626Z,19.32
2022-08-02T04:13:52.103Z,19.30
2022-08-02T04:16:25.594Z,19.34
2022-08-02T04:19:01.754Z,19.33
2022-08-02T04:21:48.766Z,19.34
2022-08-02T04:24:25.247Z,19.38
2022-08-02T04:27:06.365Z,19.42
2022-08-02T04:29:38.228Z,19.49
2022-08-02T04:32:10.060Z,19.57
2022-08-02T04:34:54.233Z,19.64
2022-08-02T04:37:33.325Z,19.77
2022-08-02T04:40:04.034Z,19.79
2022-08-02T04:42:34.198Z,19.89
2022-08-02T04:45:04.385Z,20.04
2022-08-02T04:48:02.053Z,20.10
2022-08-02T04:50:27.888Z,20.25
2022-08-02T04:52:58.024Z,20.40
2022-08-02T04:55:29.346Z,20.58
2022-08-02T04:58:03.724Z,20.55
2022-08-02T05:00:38.704Z,20.75
2022-08-02T05:03:09.645Z,20.85
2022-08-02T05:05:42.400Z,20.87
2022-08-02T05:08:12.569Z,20.97
2022-08-02T05:10:42.703Z,21.20
2022-08-02T05:13:12.849Z,21.03
2022-08-02T05:15:43.491Z,21.11
2022-08-02T05:18:13.715Z,21.26
2022-08-02T05:20:46.961Z,21.13
2022-08-02T05:23:17.127Z,21.22
2022-08-02T05:25:47.235Z,21.51
2022-08-02T05:28:17.558Z,21.69
2022-08-02T05:30:49.768Z,21.90
2022-08-02T05:33:20.655Z,22.20
2022-08-02T05:35:53.397Z,22.24
2022-08-02T05:38:26.242Z,21.95
2022-08-02T05:40:56.611Z,22.40
2022-08-02T05:43:26.767Z,22.58
2022-08-02T05:45:56.913Z,22.63
2022-08-02T05:48:31.968Z,22.66
2022-08-02T05:51:09.009Z,22.68
2022-08-02T05:53:43.611Z,23.16
2022-08-02T05:56:24.726Z,23.19
2022-08-02T05:58:59.306Z,23.30
2022-08-02T06:01:36.900Z,23.27
2022-08-02T06:04:10.057Z,23.59
2022-08-02T06:06:47.946Z,24.00
2022-08-02T06:09:23.274Z,23.95
2022-08-02T06:12:02.976Z,23.99
2022-08-02T06:14:35.510Z,23.72
2022-08-02T06:17:07.794Z,23.82
2022-08-02T06:19:51.708Z,24.24
2022-08-02T06:22:35.201Z,24.04
2022-08-02T06:25:11.737Z,24.48
2022-08-02T06:27:58.693Z,24.59
2022-08-02T06:30:33.285Z,24.93
2022-08-02T06:33:04.456Z,25.04
2022-08-02T06:35:38.321Z,24.80
2022-08-02T06:38:12.787Z,25.08
2022-08-02T06:40:48.755Z,25.35
2022-08-02T06:43:25.834Z,25.48
2022-08-02T06:45:56.289Z,25.76
2022-08-02T06:48:46.490Z,26.02
2022-08-02T06:51:16.741Z,26.25
2022-08-02T06:53:50.225Z,26.18
2022-08-02T06:56:20.398Z,26.17
2022-08-02T06:58:50.903Z,26.07
2022-08-02T07:01:22.744Z,26.28
2022-08-02T07:03:53.212Z,26.78
2022-08-02T07:06:23.670Z,27.00
2022-08-02T07:09:19.548Z,27.09
2022-08-02T07:11:46.679Z,27.40
2022-08-02T07:14:17.075Z,26.98
2022-08-02T07:16:47.275Z,26.93
2022-08-02T07:19:17.433Z,27.65
2022-08-02T07:21:56.523Z,27.84
2022-08-02T07:24:32.310Z,28.29
2022-08-02T07:27:12.056Z,28.50
2022-08-02T07:29:45.501Z,27.55
2022-08-02T07:32:17.905Z,27.16
2022-08-02T07:34:51.097Z,27.16
2022-08-02T07:37:35.265Z,27.68
2022-08-02T07:40:20.150Z,27.72
2022-08-02T07:42:52.532Z,27.98
2022-08-02T07:45:33.164Z,28.00
2022-08-02T07:48:08.641Z,28.38
2022-08-02T07:50:38.941Z,27.88
2022-08-02T07:53:09.300Z,28.10
2022-08-02T07:55:42.290Z,27.81
2022-08-02T07:58:13.668Z,28.29
2022-08-02T08:00:47.685Z,27.80
2022-08-02T08:03:18.039Z,27.45
2022-08-02T08:05:48.658Z,27.31
2022-08-02T08:08:18.811Z,28.05
2022-08-02T08:10:52.556Z,28.04
2022-08-02T08:13:22.719Z,27.97
2022-08-02T08:15:53.210Z,28.65
2022-08-02T08:18:24.382Z,28.68
2022-08-02T08:20:54.620Z,28.15
2022-08-02T08:23:24.925Z,28.65
2022-08-02T08:25:58.523Z,28.48
2022-08-02T08:28:29.117Z,29.27
2022-08-02T08:30:59.788Z,29.23
2022-08-02T08:33:30.179Z,29.47
2022-08-02T08:36:02.535Z,29.79
2022-08-02T08:38:33.585Z,29.52
2022-08-02T08:41:08.290Z,29.35
2022-08-02T08:43:39.813Z,28.36
2022-08-02T08:46:14.104Z,29.04
2022-08-02T08:48:49.762Z,28.81
2022-08-02T08:51:24.024Z,28.90
2022-08-02T08:53:57.737Z,29.07
2022-08-02T08:56:35.609Z,29.64
2022-08-02T08:59:06.869Z,29.41
2022-08-02T09:01:50.412Z,29.45
2022-08-02T09:04:21.649Z,28.71
2022-08-02T09:06:51.979Z,29.45
2022-08-02T09:09:22.181Z,29.60
2022-08-02T09:11:55.057Z,29.38
2022-08-02T09:14:32.945Z,29.49
2022-08-02T09:17:14.129Z,29.06
2022-08-02T09:19:46.149Z,29.54
2022-08-02T09:22:17.601Z,29.86
2022-08-02T09:24:49.751Z,29.31
2022-08-02T09:27:25.264Z,29.16
2022-08-02T09:30:14.014Z,29.02
2022-08-02T09:32:50.103Z,29.67
2022-08-02T09:36:06.547Z,29.84
2022-08-02T09:38:26.549Z,29.02
2022-08-02T09:40:56.751Z,29.50
2022-08-02T09:43:58.006Z,29.75
2022-08-02T09:46:34.788Z,29.44
2022-08-02T09:49:08.361Z,29.37
2022-08-02T09:51:40.068Z,29.77
2022-08-02T09:54:12.651Z,29.56
2022-08-02T09:56:45.800Z,29.84
2022-08-02T09:59:20.557Z,30.17
2022-08-02T10:01:59.031Z,30.15
2022-08-02T10:04:52.843Z,30.38
2022-08-02T10:07:24.388Z,30.51
2022-08-02T10:09:55.123Z,31.03
2022-08-02T10:12:26.670Z,30.67
2022-08-02T10:14:59.590Z,30.51
2022-08-02T10:17:29.840Z,30.43
2022-08-02T10:20:04.200Z,30.74
2022-08-02T10:22:36.504Z,30.23
2022-08-02T10:25:08.445Z,30.86
2022-08-02T10:28:03.732Z,31.06
2022-08-02T10:30:35.127Z,30.79
2022-08-02T10:33:06.891Z,30.63
2022-08-02T10:35:40.809Z,30.25
2022-08-02T10:38:14.087Z,30.42
2022-08-02T10:40:48.504Z,31.00
2022-08-02T10:43:50.867Z,31.19
2022-08-02T10:46:33.568Z,31.43
2022-08-02T10:52:09.740Z,32.14
2022-08-02T10:54:42.856Z,31.98
2022-08-02T10:57:23.129Z,32.04
2022-08-02T10:59:55.025Z,31.26
2022-08-02T11:02:46.951Z,31.89
2022-08-02T11:05:19.089Z,32.38
2022-08-02T11:07:51.326Z,32.07
2022-08-02T11:10:33.682Z,32.14
2022-08-02T11:13:27.610Z,31.44
2022-08-02T11:16:10.593Z,30.19
2022-08-02T11:19:08.903Z,31.33
2022-08-02T11:21:39.451Z,31.65
2022-08-02T11:24:34.262Z,32.02
2022-08-02T11:27:05.472Z,31.31
2022-08-02T11:29:40.946Z,31.03
2022-08-02T11:32:18.084Z,30.65
2022-08-02T11:34:52.567Z,31.29
2022-08-02T11:37:32.633Z,30.88
2022-08-02T11:40:02.708Z,31.19
2022-08-02T11:42:36.388Z,30.84
2022-08-02T11:45:10.298Z,30.58
2022-08-02T11:47:49.202Z,31.31
2022-08-02T11:50:30.310Z,31.13
2022-08-02T11:53:00.914Z,30.59
2022-08-02T11:55:32.302Z,31.31
2022-08-02T11:58:05.411Z,31.78
2022-08-02T12:00:37.098Z,31.88
2022-08-02T12:03:08.929Z,32.35
2022-08-02T12:06:04.525Z,32.67
2022-08-02T12:08:31.982Z,32.41
2022-08-02T12:11:05.375Z,33.02
2022-08-02T12:13:56.753Z,32.67
2022-08-02T12:16:40.791Z,33.29
2022-08-02T12:19:23.543Z,31.53
2022-08-02T12:22:11.229Z,31.52
2022-08-02T12:24:42.399Z,31.11
2022-08-02T12:27:13.238Z,30.43
2022-08-02T12:29:58.253Z,29.91
2022-08-02T12:32:29.507Z,29.75
2022-08-02T12:35:26.687Z,29.81
2022-08-02T12:38:00.084Z,29.99
2022-08-02T12:40:34.921Z,30.57
2022-08-02T12:43:07.494Z,30.36
2022-08-02T12:45:53.394Z,31.15
2022-08-02T12:48:42.778Z,31.58
2022-08-02T12:51:23.634Z,31.28
2022-08-02T12:53:59.965Z,31.95
2022-08-02T12:56:33.515Z,32.26
2022-08-02T12:59:03.706Z,32.21
2022-08-02T13:01:34.321Z,31.83
2022-08-02T13:04:09.606Z,31.71
2022-08-02T13:06:45.431Z,31.91
2022-08-02T13:09:20.350Z,31.68
2022-08-02T13:11:50.545Z,32.06
2022-08-02T13:14:20.705Z,32.40
2022-08-02T13:16:51.689Z,32.46
2022-08-02T13:19:21.904Z,32.83
2022-08-02T13:22:02.722Z,32.95
2022-08-02T13:24:40.738Z,32.74
2022-08-02T13:27:27.580Z,32.82
2022-08-02T13:29:59.484Z,32.12
2022-08-02T13:32:30.811Z,32.47
2022-08-02T13:35:01.599Z,32.12
2022-08-02T13:37:31.932Z,31.58
2022-08-02T13:40:21.327Z,31.17
2022-08-02T13:42:52.675Z,31.03
2022-08-02T13:45:23.297Z,31.58
2022-08-02T13:48:03.572Z,31.53
2022-08-02T13:50:35.139Z,31.92
2022-08-02T13:53:05.410Z,32.01
2022-08-02T13:55:43.227Z,32.04
2022-08-02T13:58:13.594Z,32.12
2022-08-02T14:00:43.796Z,32.36
2022-08-02T14:03:13.945Z,31.89
2022-08-02T14:05:48.638Z,32.30
2022-08-02T14:08:20.869Z,31.98
2022-08-02T14:10:55.093Z,32.12
2022-08-02T14:13:25.347Z,32.60
2022-08-02T14:15:56.586Z,32.16
2022-08-02T14:18:26.760Z,31.93
2022-08-02T14:20:56.884Z,31.89
2022-08-02T14:23:49.792Z,32.32
2022-08-02T14:26:27.948Z,32.21
2022-08-02T14:28:58.323Z,31.92
2022-08-02T14:31:28.629Z,32.03
2022-08-02T14:33:58.956Z,31.67
2022-08-02T14:36:29.135Z,32.08
2022-08-02T14:38:59.703Z,32.10
2022-08-02T14:41:34.063Z,31.93
2022-08-02T14:44:24.162Z,32.04
2022-08-02T14:46:54.769Z,31.90
2022-08-02T14:49:26.890Z,32.05
2022-08-02T14:51:57.702Z,31.80
2022-08-02T14:54:31.388Z,31.81
2022-08-02T14:57:06.445Z,31.81
2022-08-02T14:59:42.219Z,31.58
2022-08-02T15:02:14.052Z,31.32
2022-08-02T15:04:45.181Z,31.13
2022-08-02T15:07:16.912Z,30.97
2022-08-02T15:09:47.359Z,31.13
2022-08-02T15:12:20.170Z,31.30
2022-08-02T15:14:50.253Z,31.36
2022-08-02T15:17:20.662Z,31.32
2022-08-02T15:19:59.530Z,31.08
2022-08-02T15:22:31.341Z,31.43
2022-08-02T15:25:02.550Z,31.16
2022-08-02T15:27:35.581Z,30.85
2022-08-02T15:30:10.511Z,31.24
2022-08-02T15:32:40.680Z,31.11
2022-08-02T15:35:23.623Z,30.99
2022-08-02T15:37:54.472Z,31.00
2022-08-02T15:40:25.878Z,30.87
2022-08-02T15:42:58.625Z,31.08
2022-08-02T15:45:29.460Z,31.10
2022-08-02T15:48:00.018Z,31.10
2022-08-02T15:50:30.570Z,31.09
2022-08-02T15:53:00.715Z,31.19
2022-08-02T15:55:39.961Z,30.85
2022-08-02T15:58:24.087Z,30.63
2022-08-02T16:00:55.003Z,30.49
2022-08-02T16:03:25.519Z,30.51
2022-08-02T16:05:56.138Z,30.32
2022-08-02T16:08:26.484Z,30.28
2022-08-02T16:10:58.004Z,30.13
2022-08-02T16:13:53.330Z,30.06
2022-08-02T16:16:24.664Z,30.03
2022-08-02T16:18:55.197Z,30.00
2022-08-02T16:21:25.949Z,30.02
2022-08-02T16:24:02.068Z,30.08
2022-08-02T16:26:35.075Z,29.79
2022-08-02T16:29:08.035Z,29.61
2022-08-02T16:31:42.420Z,29.55
2022-08-02T16:34:13.464Z,29.49
2022-08-02T16:36:43.633Z,29.58
2022-08-02T16:39:13.871Z,29.53
2022-08-02T16:41:50.909Z,29.60
2022-08-02T16:44:30.142Z,29.54
2022-08-02T16:47:04.230Z,29.58
2022-08-02T16:50:04.430Z,29.36
2022-08-02T16:52:26.482Z,29.33
2022-08-02T16:54:56.683Z,29.33
2022-08-02T16:57:43.324Z,29.21
2022-08-02T17:00:18.792Z,29.04
2022-08-02T17:02:49.156Z,28.88
2022-08-02T17:05:20.995Z,28.91
2022-08-02T17:08:15.104Z,28.81
2022-08-02T17:10:41.778Z,28.81
2022-08-02T17:13:12.542Z,28.86
2022-08-02T17:16:17.232Z,28.77
2022-08-02T17:18:43.076Z,28.68
2022-08-02T17:21:19.712Z,28.70
2022-08-02T17:24:05.425Z,28.72
2022-08-02T17:26:46.885Z,28.57
2022-08-02T17:29:24.126Z,28.54
2022-08-02T17:32:09.300Z,28.48
2022-08-02T17:34:48.932Z,28.24
2022-08-02T17:37:30.131Z,28.08
2022-08-02T17:40:06.023Z,27.95
2022-08-02T17:42:39.911Z,27.90
2022-08-02T17:45:25.295Z,27.80
2022-08-02T17:48:07.042Z,27.64
2022-08-02T17:50:40.191Z,27.55
2022-08-02T17:53:20.292Z,27.43
2022-08-02T17:55:51.151Z,27.36
2022-08-02T17:58:21.419Z,27.19
2022-08-02T18:01:03.824Z,27.15
2022-08-02T18:03:36.635Z,27.02
2022-08-02T18:06:13.314Z,26.92
2022-08-02T18:08:44.400Z,26.93
2022-08-02T18:11:20.456Z,26.77
2022-08-02T18:14:10.839Z,26.71
2022-08-02T18:16:42.567Z,26.67
2022-08-02T18:19:16.953Z,26.55
2022-08-02T18:21:48.728Z,26.62
2022-08-02T18:24:19.506Z,26.58
2022-08-02T18:26:54.296Z,26.52
2022-08-02T18:29:24.471Z,26.39
2022-08-02T18:32:00.489Z,26.23
2022-08-02T18:34:36.204Z,26.16
2022-08-02T18:37:09.340Z,26.17
2022-08-02T18:39:39.460Z,26.03
2022-08-02T18:42:21.316Z,26.09
2022-08-02T18:44:51.476Z,26.14
2022-08-02T18:47:22.864Z,26.18
2022-08-02T18:49:56.416Z,26.13
2022-08-02T18:52:31.067Z,26.08
2022-08-02T18:55:01.956Z,25.96
2022-08-02T18:58:17.409Z,26.00
2022-08-02T19:00:25.781Z,26.06
2022-08-02T19:02:56.975Z,25.99
2022-08-02T19:05:51.603Z,25.79
2022-08-02T19:08:26.318Z,25.82
2022-08-02T19:10:58.000Z,25.75
2022-08-02T19:13:33.025Z,25.60
2022-08-02T19:16:06.482Z,25.58
2022-08-02T19:18:37.819Z,25.56
2022-08-02T19:21:11.740Z,25.54
2022-08-02T19:23:54.322Z,25.42
2022-08-02T19:26:26.512Z,25.38
2022-08-02T19:28:56.696Z,25.34
2022-08-02T19:31:34.670Z,25.23
2022-08-02T19:34:19.404Z,25.10
2022-08-02T19:36:57.999Z,25.10
2022-08-02T19:39:29.023Z,24.96
2022-08-02T19:42:00.958Z,24.88
2022-08-02T19:44:31.130Z,24.96
2022-08-02T19:47:01.245Z,24.82
2022-08-02T19:49:39.690Z,24.79
2022-08-02T19:52:21.759Z,24.77
2022-08-02T19:54:57.928Z,24.75
2022-08-02T19:57:34.515Z,24.60
2022-08-02T20:00:05.628Z,24.52
2022-08-02T20:02:46.548Z,24.50
2022-08-02T20:05:24.099Z,24.38
2022-08-02T20:07:59.535Z,24.34
2022-08-02T20:10:29.740Z,24.30
2022-08-02T20:13:00.086Z,24.15
2022-08-02T20:15:56.020Z,24.10
2022-08-02T20:18:26.703Z,24.05
2022-08-02T20:20:59.368Z,24.05
2022-08-02T20:23:34.393Z,23.99
2022-08-02T20:26:06.418Z,23.87
2022-08-02T20:28:39.294Z,23.84
2022-08-02T20:31:11.007Z,23.85
2022-08-02T20:33:56.007Z,23.83
2022-08-02T20:36:27.220Z,23.72
2022-08-02T20:39:00.275Z,23.77
2022-08-02T20:41:36.410Z,23.72
2022-08-02T20:44:15.616Z,23.71
2022-08-02T20:46:59.966Z,23.81
2022-08-02T20:49:40.984Z,23.79
2022-08-02T20:52:23.956Z,23.74
2022-08-02T20:54:57.306Z,23.74
2022-08-02T20:57:36.162Z,23.68
2022-08-02T21:00:19.223Z,23.73
2022-08-02T21:02:50.652Z,23.73
2022-08-02T21:05:20.822Z,23.69
2022-08-02T21:08:14.772Z,23.59
2022-08-02T21:10:51.851Z,23.54
2022-08-02T21:13:26.142Z,23.45
2022-08-02T21:16:00.380Z,23.43
2022-08-02T21:18:40.942Z,23.36
2022-08-02T21:21:14.747Z,23.23
2022-08-02T21:23:48.826Z,23.13
2022-08-02T21:26:30.487Z,23.05
2022-08-02T21:29:04.487Z,23.02
2022-08-02T21:31:36.745Z,22.97
2022-08-02T21:34:22.135Z,22.97
2022-08-02T21:36:57.971Z,22.80
2022-08-02T21:39:28.380Z,22.87
2022-08-02T21:44:31.085Z,22.82
2022-08-02T21:47:01.329Z,22.82
2022-08-02T21:50:09.310Z,22.84
2022-08-02T21:52:25.959Z,22.73
2022-08-02T21:54:57.492Z,22.65
2022-08-02T21:57:34.680Z,22.71
2022-08-02T22:00:05.600Z,22.57
2022-08-02T22:02:39.024Z,22.60
2022-08-02T22:05:14.267Z,22.49
2022-08-02T22:07:45.867Z,22.54
2022-08-02T22:10:16.136Z,22.44
2022-08-02T22:12:49.210Z,22.39
2022-08-02T22:15:25.846Z,22.27
2022-08-02T22:18:06.688Z,22.16
2022-08-02T22:20:44.653Z,22.00
2022-08-02T22:23:22.731Z,22.06
2022-08-02T22:26:06.642Z,21.92
2022-08-02T22:28:52.871Z,21.86
2022-08-02T22:31:41.181Z,21.88
2022-08-02T22:34:26.681Z,21.79
2022-08-02T22:37:01.286Z,21.83
2022-08-02T22:39:35.974Z,21.77
2022-08-02T22:42:07.306Z,21.70
2022-08-02T22:44:40.264Z,21.72
2022-08-02T22:47:15.222Z,21.68
2022-08-02T22:49:53.019Z,21.57
2022-08-02T22:52:26.517Z,21.57
2022-08-02T22:54:56.748Z,21.55
2022-08-02T22:57:30.985Z,21.50
2022-08-02T23:00:05.918Z,21.56
2022-08-02T23:02:36.080Z,21.53
2022-08-02T23:05:09.069Z,21.55
2022-08-02T23:07:39.413Z,21.50
2022-08-02T23:10:10.642Z,21.55
2022-08-02T23:12:40.848Z,21.53
2022-08-02T23:15:14.743Z,21.63
2022-08-02T23:17:57.397Z,21.66
2022-08-02T23:20:27.692Z,21.62
2022-08-02T23:22:57.857Z,21.55
2022-08-02T23:25:27.972Z,21.42
2022-08-02T23:27:58.110Z,21.37
2022-08-02T23:30:31.258Z,21.35
2022-08-02T23:33:01.431Z,21.26
2022-08-02T23:35:32.424Z,21.26
2022-08-02T23:38:03.926Z,21.31
2022-08-02T23:40:40.551Z,21.40
2022-08-02T23:43:13.967Z,21.26
2022-08-02T23:45:49.258Z,21.48
2022-08-02T23:48:19.491Z,21.37
2022-08-02T23:50:49.574Z,21.29
2022-08-02T23:53:24.414Z,21.31
2022-08-02T23:55:56.783Z,21.35
2022-08-02T23:58:32.846Z,21.26
